GCT weather

Grand Canyon Bar Ten Airstrip
Whitmore, Arizona, United States

Public forecast

Using degrees Fahrenheit for public forecast. Weather courtesy of forecast.io.

METAR (pilot weather report)

Closest report is Colorado City Municipal Airport, 43.3 nm (80.2 km) NNE. Retrieved 2019/09/17 17:15 UTC (42 minutes ago):

KAZC 171715Z AUTO 27010G19KT 230V290 10SM CLR 25/06 A3013 RMK AO2

TAF (pilot weather forecast)

Closest forecast is St George Municipal Airport, 48.5 nm (89.9 km) NNW. Retrieved 2019/09/17 12:22 UTC (6 hours ago):

TAF KSGU 171120Z 1712/1812 18008KT P6SM SCT080 SCT120 FM171500 26008KT P6SM SCT100 FM180300 VRB04KT P6SM SKC